Time;durP1;ratioP1;P1;durP2;ratioP2;P2;SDS_P1;SDS_P2;PMS_P1;PMS_P2;Temp;Humidity;BMP_temperature;BMP_pressure;BME280_temperature;BME280_humidity;BME280_pressure;Samples;Min_cycle;Max_cycle;Signal;HPM_P1;HPM_P2
2021/06/23 06:49:17;;;;;;;13.83;12.50;;;23.20;99.90;;;;;;5257164;23;20500;-69
2021/06/23 06:51:44;;;;;;;13.03;12.43;;;23.90;99.90;;;;;;5016135;28;20498;-70
2021/06/23 06:54:10;;;;;;;12.87;12.40;;;25.00;99.90;;;;;;5030054;28;20456;-70
2021/06/23 06:56:37;;;;;;;12.47;11.87;;;25.40;99.90;;;;;;5029527;28;20457;-69
2021/06/23 06:59:04;;;;;;;13.30;12.80;;;25.80;99.90;;;;;;5029869;28;20459;-71
2021/06/23 07:01:30;;;;;;;13.00;12.40;;;25.80;99.90;;;;;;5029951;28;20461;-70
2021/06/23 07:03:57;;;;;;;11.77;11.37;;;25.80;99.90;;;;;;5029754;28;20459;-70
2021/06/23 07:06:25;;;;;;;12.90;12.50;;;25.60;99.90;;;;;;5033202;28;20464;-70
2021/06/23 07:08:52;;;;;;;11.60;11.10;;;25.60;99.90;;;;;;5033601;28;20460;-70
2021/06/23 07:11:19;;;;;;;12.43;12.03;;;25.50;99.90;;;;;;5033568;28;20473;-70
2021/06/23 07:13:45;;;;;;;13.03;12.33;;;25.50;99.90;;;;;;5033608;28;20930;-70
2021/06/23 07:16:12;;;;;;;13.13;12.50;;;25.40;99.90;;;;;;5033348;28;20876;-70
2021/06/23 07:18:38;;;;;;;13.00;12.60;;;25.50;99.90;;;;;;5033386;28;20445;-71
2021/06/23 07:21:06;;;;;;;12.80;12.20;;;25.50;99.90;;;;;;5033457;28;20456;-70
2021/06/23 07:23:34;;;;;;;12.57;12.07;;;25.90;99.90;;;;;;5033511;28;20448;-70
2021/06/23 07:26:01;;;;;;;13.27;12.67;;;26.30;99.90;;;;;;5033336;28;20954;-70
2021/06/23 07:28:39;;;;;;;12.70;12.10;;;26.80;99.70;;;;;;5031164;28;20484;-71
2021/06/23 07:31:08;;;;;;;13.70;12.80;;;27.00;99.30;;;;;;5024464;28;20530;-72
2021/06/23 07:33:36;;;;;;;13.00;12.40;;;27.30;98.60;;;;;;5033412;28;20553;-72
2021/06/23 07:38:48;;;;;;;13.10;12.30;;;28.10;97.30;;;;;;5013638;28;20541;-70
2021/06/23 07:41:15;;;;;;;13.97;13.37;;;28.50;96.50;;;;;;5014616;28;20453;-70
2021/06/23 07:43:41;;;;;;;13.43;13.03;;;29.10;95.10;;;;;;5032784;28;20441;-71
2021/06/23 07:46:08;;;;;;;12.80;12.20;;;29.20;94.60;;;;;;5031493;28;20452;-71
2021/06/23 07:48:38;;;;;;;13.37;12.70;;;29.40;94.60;;;;;;5012761;28;20477;-71
2021/06/23 07:51:09;;;;;;;13.73;13.23;;;29.50;93.90;;;;;;5013002;28;20465;-71
2021/06/23 07:53:53;;;;;;;13.93;13.27;;;30.00;93.10;;;;;;5012706;28;20488;-71
2021/06/23 07:56:27;;;;;;;14.03;13.33;;;30.70;91.70;;;;;;5013034;28;20450;-71
2021/06/23 08:10:08;;;;;;;14.43;13.60;;;32.30;87.40;;;;;;5012571;28;20530;-71
2021/06/23 08:12:42;;;;;;;14.30;13.73;;;32.30;84.50;;;;;;5012447;28;20577;-71
2021/06/23 08:15:10;;;;;;;13.97;13.30;;;32.60;82.50;;;;;;5012324;28;20794;-70
2021/06/23 08:17:37;;;;;;;14.30;13.80;;;32.10;83.60;;;;;;5011220;28;20458;-71
2021/06/23 08:20:05;;;;;;;14.33;13.77;;;31.70;84.70;;;;;;5012350;28;20454;-70
2021/06/23 08:22:31;;;;;;;14.40;13.90;;;31.70;85.00;;;;;;5012452;28;20452;-70
2021/06/23 08:24:58;;;;;;;15.17;14.50;;;31.20;84.30;;;;;;5012166;28;20450;-71
2021/06/23 08:27:25;;;;;;;14.30;13.80;;;31.00;85.50;;;;;;5011953;28;20457;-71
2021/06/23 08:29:53;;;;;;;13.03;12.53;;;31.00;84.00;;;;;;5012028;28;20458;-70
2021/06/23 08:32:20;;;;;;;13.87;13.33;;;30.90;84.20;;;;;;5012036;28;20489;-70
2021/06/23 08:34:46;;;;;;;13.87;13.37;;;31.70;83.10;;;;;;5012415;28;20827;-71
2021/06/23 08:37:13;;;;;;;13.70;13.17;;;32.20;81.60;;;;;;5011427;28;20795;-73
2021/06/23 08:39:40;;;;;;;13.73;13.13;;;32.50;78.80;;;;;;5011703;28;20461;-70
2021/06/23 08:42:07;;;;;;;14.33;13.73;;;32.80;78.70;;;;;;5005873;28;20451;-71
2021/06/23 08:44:33;;;;;;;14.60;14.10;;;33.60;76.60;;;;;;4992173;28;20870;-71
2021/06/23 08:47:02;;;;;;;14.40;13.90;;;33.50;76.50;;;;;;4991759;28;20474;-71
2021/06/23 08:49:29;;;;;;;14.30;13.70;;;33.70;73.70;;;;;;4991628;28;20483;-71
2021/06/23 08:51:57;;;;;;;13.40;12.90;;;32.90;76.20;;;;;;4991696;28;20490;-71
2021/06/23 08:54:25;;;;;;;14.17;13.77;;;32.70;77.00;;;;;;4991677;28;20725;-71
2021/06/23 08:56:52;;;;;;;14.00;13.60;;;33.10;74.20;;;;;;4991787;28;20466;-71
2021/06/23 08:59:19;;;;;;;14.67;14.17;;;33.80;73.20;;;;;;4991596;28;20482;-71
2021/06/23 09:01:46;;;;;;;15.80;15.07;;;34.40;70.80;;;;;;4991670;28;20455;-71
2021/06/23 09:04:16;;;;;;;14.27;13.67;;;34.20;72.20;;;;;;4991523;28;20462;-71
2021/06/23 09:06:48;;;;;;;13.47;13.07;;;33.60;70.40;;;;;;4991530;28;20482;-70
2021/06/23 09:09:25;;;;;;;14.20;13.73;;;33.50;72.40;;;;;;4991494;28;20450;-71
2021/06/23 09:11:54;;;;;;;14.60;14.20;;;33.40;71.30;;;;;;4991328;28;21054;-71
2021/06/23 09:14:22;;;;;;;13.37;12.97;;;33.80;69.60;;;;;;4991420;28;20450;-71
2021/06/23 09:17:07;;;;;;;14.30;13.83;;;33.20;70.90;;;;;;4991348;28;20815;-71
2021/06/23 09:19:37;;;;;;;14.40;13.87;;;34.10;68.30;;;;;;4991328;28;20473;-71
2021/06/23 09:22:05;;;;;;;13.90;13.40;;;34.20;67.50;;;;;;4991257;28;20450;-71
2021/06/23 09:24:39;;;;;;;14.37;13.93;;;33.50;66.90;;;;;;4991080;28;20461;-70
2021/06/23 09:27:19;;;;;;;13.60;13.10;;;32.70;68.40;;;;;;4990973;28;20501;-71
2021/06/23 09:29:46;;;;;;;13.60;13.20;;;32.30;70.10;;;;;;4990953;28;20778;-71
2021/06/23 09:32:13;;;;;;;13.50;13.10;;;32.20;70.10;;;;;;4990523;28;20486;-70
2021/06/23 09:34:43;;;;;;;15.37;14.67;;;33.10;67.60;;;;;;4990851;28;20450;-70
2021/06/23 09:37:24;;;;;;;14.30;13.53;;;32.60;68.60;;;;;;4990698;28;20514;-70
2021/06/23 09:39:51;;;;;;;13.47;12.87;;;31.70;70.10;;;;;;4990676;28;20458;-70
2021/06/23 09:42:18;;;;;;;14.10;13.70;;;31.90;68.90;;;;;;4991108;28;20454;-72
2021/06/23 09:44:46;;;;;;;14.00;13.50;;;32.70;67.80;;;;;;4991033;28;20458;-72
2021/06/23 09:47:12;;;;;;;14.20;13.70;;;32.70;68.40;;;;;;4990725;28;20473;-71
2021/06/23 09:49:43;;;;;;;14.20;13.50;;;32.60;68.40;;;;;;4990595;28;20482;-73
2021/06/23 09:52:12;;;;;;;13.20;12.80;;;32.80;66.10;;;;;;4990416;28;20526;-71
2021/06/23 09:54:49;;;;;;;13.23;12.63;;;32.90;64.40;;;;;;4990508;28;20466;-72
2021/06/23 09:57:18;;;;;;;12.93;12.43;;;32.80;65.70;;;;;;4990762;28;21059;-71
2021/06/23 09:59:47;;;;;;;14.10;13.50;;;33.50;64.00;;;;;;4990650;28;20501;-71
2021/06/23 10:02:26;;;;;;;13.67;13.27;;;34.30;62.60;;;;;;4990486;28;20451;-72
2021/06/23 10:04:55;;;;;;;13.90;13.30;;;34.90;59.10;;;;;;4990246;28;20450;-71
2021/06/23 10:07:39;;;;;;;13.80;13.30;;;35.00;58.40;;;;;;4990115;28;20462;-71
2021/06/23 10:10:07;;;;;;;12.87;12.47;;;33.90;60.30;;;;;;4990371;28;20875;-71
2021/06/23 10:12:33;;;;;;;12.90;12.50;;;33.60;59.90;;;;;;4990275;28;20494;-71
2021/06/23 10:15:00;;;;;;;13.40;12.90;;;33.30;61.10;;;;;;4990499;28;20479;-72
2021/06/23 10:17:28;;;;;;;13.60;13.10;;;33.60;60.60;;;;;;4990164;28;20929;-71
2021/06/23 10:19:57;;;;;;;12.90;12.50;;;34.20;59.50;;;;;;4990330;28;20451;-72
2021/06/23 10:22:24;;;;;;;13.73;13.23;;;34.20;58.90;;;;;;4990495;28;20987;-72
2021/06/23 10:24:53;;;;;;;13.03;12.53;;;34.90;58.90;;;;;;4990361;28;20513;-71
2021/06/23 10:27:22;;;;;;;12.70;12.30;;;34.60;58.20;;;;;;4990439;28;20451;-72
2021/06/23 10:29:53;;;;;;;12.87;12.37;;;34.90;58.10;;;;;;4990592;28;20559;-71
2021/06/23 10:32:20;;;;;;;12.17;11.87;;;34.70;57.90;;;;;;4990386;28;21003;-72
2021/06/23 10:34:47;;;;;;;13.20;12.80;;;33.70;59.30;;;;;;4990652;28;20446;-72
2021/06/23 10:37:16;;;;;;;13.43;13.03;;;32.80;61.70;;;;;;4990345;28;20815;-72
2021/06/23 10:39:45;;;;;;;13.93;13.10;;;32.70;61.20;;;;;;4991131;28;20455;-73
2021/06/23 10:42:13;;;;;;;13.10;12.70;;;32.70;62.20;;;;;;4994016;28;20451;-72
2021/06/23 10:44:42;;;;;;;13.63;13.13;;;32.80;61.00;;;;;;4994035;28;20992;-72
2021/06/23 10:47:11;;;;;;;14.03;13.60;;;32.90;60.50;;;;;;4993989;28;20474;-73
2021/06/23 10:49:40;;;;;;;12.57;12.17;;;33.40;60.00;;;;;;4993868;28;20478;-72
2021/06/23 10:52:33;;;;;;;13.13;12.63;;;33.60;58.80;;;;;;4993856;28;20454;-72
2021/06/23 10:55:00;;;;;;;14.03;13.13;;;33.80;60.10;;;;;;4994146;28;20450;-72
2021/06/23 10:57:29;;;;;;;13.60;13.20;;;34.20;58.60;;;;;;4994063;28;20864;-71
2021/06/23 10:59:57;;;;;;;13.50;13.00;;;34.70;59.10;;;;;;4992067;28;20633;-70
2021/06/23 11:02:31;;;;;;;14.37;13.97;;;34.40;60.60;;;;;;4993624;28;20454;-71
2021/06/23 11:05:10;;;;;;;14.50;14.00;;;34.40;60.50;;;;;;4993428;28;20456;-71
2021/06/23 11:07:40;;;;;;;12.70;12.23;;;34.50;60.20;;;;;;4993544;28;20469;-71
2021/06/23 11:10:26;;;;;;;13.40;13.00;;;33.90;61.40;;;;;;4993401;28;20452;-71
2021/06/23 11:12:55;;;;;;;14.27;13.37;;;33.70;60.30;;;;;;4993732;28;20478;-71
2021/06/23 11:15:25;;;;;;;14.10;13.60;;;34.30;59.70;;;;;;4993650;28;20457;-71
2021/06/23 11:17:54;;;;;;;13.40;12.90;;;33.20;59.60;;;;;;4993415;28;20557;-71
2021/06/23 11:20:43;;;;;;;13.30;12.90;;;34.10;59.30;;;;;;4993620;28;20454;-71
2021/06/23 11:23:40;;;;;;;13.73;13.33;;;34.40;57.90;;;;;;4993512;28;20477;-71
2021/06/23 11:26:07;;;;;;;12.50;12.00;;;33.90;58.00;;;;;;4993290;28;20450;-70
2021/06/23 11:28:33;;;;;;;13.33;12.80;;;33.70;57.20;;;;;;4993709;28;20473;-71
2021/06/23 11:31:09;;;;;;;12.43;12.03;;;33.80;58.60;;;;;;4993478;28;20808;-71
2021/06/23 11:33:46;;;;;;;12.90;12.50;;;35.00;57.30;;;;;;4993201;28;20486;-70
2021/06/23 11:36:14;;;;;;;12.53;12.13;;;35.30;56.30;;;;;;4993288;28;20454;-71
2021/06/23 11:38:43;;;;;;;14.00;13.50;;;35.00;56.10;;;;;;4993287;28;20454;-70
2021/06/23 11:41:11;;;;;;;12.50;12.10;;;33.70;58.60;;;;;;4992993;28;20454;-70
2021/06/23 11:43:38;;;;;;;13.20;12.80;;;33.10;59.50;;;;;;4993094;28;20451;-70
2021/06/23 11:46:05;;;;;;;13.07;12.57;;;34.00;59.40;;;;;;4993112;28;20454;-71
2021/06/23 11:48:32;;;;;;;13.50;13.00;;;34.80;57.50;;;;;;4992965;28;20911;-71
2021/06/23 11:50:59;;;;;;;12.60;12.20;;;34.50;57.60;;;;;;4992868;28;20451;-71
2021/06/23 11:53:26;;;;;;;13.23;12.83;;;35.10;56.50;;;;;;4992682;28;20831;-71
2021/06/23 11:55:54;;;;;;;13.43;13.03;;;35.10;55.10;;;;;;4992752;28;20462;-70
2021/06/23 11:58:21;;;;;;;13.17;12.67;;;35.50;55.80;;;;;;4992985;28;20458;-70
2021/06/23 12:00:48;;;;;;;12.80;12.40;;;34.80;55.20;;;;;;4991302;28;20458;-70
2021/06/23 12:03:17;;;;;;;12.90;12.50;;;33.80;55.60;;;;;;4992489;28;20941;-70
2021/06/23 12:05:45;;;;;;;13.57;12.90;;;32.10;57.10;;;;;;4992360;28;20455;-70
2021/06/23 12:08:12;;;;;;;13.33;12.73;;;32.00;59.60;;;;;;4992519;28;20447;-71
2021/06/23 12:10:39;;;;;;;13.20;12.80;;;32.70;57.30;;;;;;4992166;28;20455;-70
2021/06/23 12:13:10;;;;;;;13.40;13.00;;;33.00;57.80;;;;;;4992446;28;20513;-70
2021/06/23 12:15:38;;;;;;;13.23;12.83;;;33.70;55.80;;;;;;4992521;28;20454;-70
2021/06/23 12:18:06;;;;;;;13.27;12.77;;;34.00;54.20;;;;;;4992573;28;20462;-70
2021/06/23 12:20:35;;;;;;;12.43;12.07;;;32.90;56.30;;;;;;4992640;28;20454;-71
2021/06/23 12:23:05;;;;;;;12.67;12.27;;;31.20;58.10;;;;;;4992597;28;20443;-70
2021/06/23 12:25:34;;;;;;;12.50;12.10;;;31.00;60.20;;;;;;4992813;28;20469;-70
2021/06/23 12:28:02;;;;;;;12.53;12.13;;;31.60;59.50;;;;;;4992382;28;20455;-71
2021/06/23 12:30:30;;;;;;;12.50;12.10;;;32.30;57.00;;;;;;4990626;28;20491;-71
2021/06/23 12:32:58;;;;;;;12.90;12.50;;;33.40;56.40;;;;;;4992092;28;20514;-71
2021/06/23 12:35:26;;;;;;;13.67;13.27;;;34.80;54.90;;;;;;4991886;28;20991;-71
2021/06/23 12:37:53;;;;;;;14.00;13.10;;;33.90;54.00;;;;;;4991884;28;20451;-71
2021/06/23 12:40:21;;;;;;;13.77;13.37;;;34.30;53.90;;;;;;4992128;28;20473;-71
2021/06/23 12:42:48;;;;;;;13.80;13.10;;;35.20;53.90;;;;;;4992239;28;20896;-71
2021/06/23 12:45:15;;;;;;;13.57;13.17;;;35.10;52.80;;;;;;4992082;28;20451;-71
2021/06/23 12:47:43;;;;;;;13.03;12.63;;;34.60;52.00;;;;;;4991553;28;20482;-71
2021/06/23 12:50:16;;;;;;;13.00;12.50;;;33.80;52.90;;;;;;4992041;28;20848;-71
2021/06/23 12:52:43;;;;;;;13.00;12.60;;;32.80;55.20;;;;;;4991821;28;20465;-71
2021/06/23 12:55:10;;;;;;;13.30;12.90;;;31.60;56.60;;;;;;4991827;28;21061;-71
2021/06/23 12:57:38;;;;;;;11.57;11.27;;;31.60;57.20;;;;;;4991937;28;20516;-70
2021/06/23 13:00:06;;;;;;;12.23;11.93;;;31.90;56.90;;;;;;4991839;28;20830;-70
2021/06/23 13:02:34;;;;;;;12.67;12.27;;;31.40;57.70;;;;;;4991259;28;20504;-70
2021/06/23 13:05:03;;;;;;;12.20;11.80;;;30.30;59.90;;;;;;4991773;28;20455;-71
2021/06/23 13:07:30;;;;;;;12.70;12.30;;;30.00;61.30;;;;;;4991593;28;20530;-71
2021/06/23 13:09:57;;;;;;;12.10;11.80;;;30.10;61.10;;;;;;4991356;28;20829;-71
2021/06/23 13:12:24;;;;;;;12.67;12.27;;;30.20;61.30;;;;;;4991403;28;20953;-71
2021/06/23 13:14:51;;;;;;;12.10;11.70;;;30.30;60.50;;;;;;4991371;28;20859;-70
2021/06/23 13:17:17;;;;;;;11.70;11.30;;;29.90;61.50;;;;;;4991548;28;20463;-70
2021/06/23 13:19:44;;;;;;;12.30;11.90;;;30.20;61.90;;;;;;4991541;28;20509;-70
2021/06/23 13:22:12;;;;;;;11.80;11.50;;;31.50;61.20;;;;;;4991423;28;20866;-71
2021/06/23 13:24:39;;;;;;;12.50;12.10;;;32.80;57.00;;;;;;4991246;28;20937;-71
2021/06/23 13:27:06;;;;;;;12.80;12.40;;;33.60;55.30;;;;;;4991481;28;20455;-70
2021/06/23 13:29:33;;;;;;;12.30;12.00;;;33.30;54.60;;;;;;4991406;28;20481;-70
2021/06/23 13:32:00;;;;;;;14.07;13.47;;;33.80;55.20;;;;;;4990994;28;20550;-70
2021/06/23 13:34:27;;;;;;;13.77;12.93;;;33.10;60.80;;;;;;4990886;28;20489;-70
2021/06/23 13:36:53;;;;;;;13.70;13.10;;;32.80;63.10;;;;;;4990973;28;20667;-70
2021/06/23 13:39:21;;;;;;;13.20;12.70;;;32.00;64.90;;;;;;4991092;28;20459;-70
2021/06/23 13:41:48;;;;;;;13.97;13.37;;;31.00;67.30;;;;;;4991274;28;20844;-69
2021/06/23 13:44:15;;;;;;;14.63;13.83;;;31.50;67.60;;;;;;4991132;28;20809;-70
2021/06/23 13:46:41;;;;;;;14.43;13.83;;;32.00;66.80;;;;;;4990877;28;20816;-70
2021/06/23 13:49:08;;;;;;;14.70;13.80;;;32.10;66.90;;;;;;4990776;28;20491;-70
2021/06/23 13:51:35;;;;;;;15.90;15.10;;;31.50;68.20;;;;;;4991020;28;20477;-70
2021/06/23 13:54:02;;;;;;;14.33;13.70;;;31.50;70.00;;;;;;4990958;28;20494;-70
2021/06/23 13:56:30;;;;;;;14.83;14.07;;;31.40;71.20;;;;;;4990845;28;20457;-69
2021/06/23 13:58:56;;;;;;;14.20;13.60;;;31.30;71.10;;;;;;4990909;28;20458;-70
2021/06/23 14:01:23;;;;;;;14.07;13.50;;;31.50;71.20;;;;;;4990612;28;20462;-69
2021/06/23 14:03:54;;;;;;;14.17;13.47;;;31.80;71.30;;;;;;4991103;28;20462;-70
2021/06/23 14:06:20;;;;;;;14.37;13.87;;;31.80;71.30;;;;;;4990893;28;20458;-70
2021/06/23 14:08:47;;;;;;;14.43;13.83;;;31.00;74.00;;;;;;4991017;28;20446;-70
2021/06/23 14:11:14;;;;;;;14.00;13.40;;;30.80;74.80;;;;;;4992014;28;20458;-70
2021/06/23 14:13:42;;;;;;;14.97;14.43;;;30.50;76.30;;;;;;4999262;28;20547;-70
2021/06/23 14:16:09;;;;;;;14.60;13.90;;;30.00;78.20;;;;;;5001847;28;20834;-70
2021/06/23 14:18:35;;;;;;;12.87;12.37;;;29.40;80.50;;;;;;5004227;28;20525;-70
2021/06/23 14:21:03;;;;;;;14.73;14.03;;;29.30;83.40;;;;;;5003476;28;20457;-70
2021/06/23 14:23:30;;;;;;;14.77;13.80;;;29.60;82.40;;;;;;5003235;28;20473;-70
2021/06/23 14:25:56;;;;;;;14.70;14.20;;;29.20;84.10;;;;;;5003923;28;20442;-70
2021/06/23 14:28:23;;;;;;;13.57;13.00;;;29.20;84.80;;;;;;5004812;28;20553;-70
2021/06/23 14:30:51;;;;;;;12.67;12.20;;;29.20;85.00;;;;;;5003150;28;20933;-69
2021/06/23 14:33:18;;;;;;;15.07;14.20;;;29.50;83.70;;;;;;5003806;28;20449;-70
2021/06/23 14:35:45;;;;;;;15.00;14.40;;;29.20;85.30;;;;;;5004888;28;20438;-70
2021/06/23 14:38:11;;;;;;;13.13;12.57;;;29.60;84.40;;;;;;5003257;28;20442;-70
2021/06/23 14:40:40;;;;;;;13.43;12.93;;;29.70;83.40;;;;;;5003472;28;20449;-69
2021/06/23 14:43:07;;;;;;;13.80;13.10;;;28.90;86.10;;;;;;5004703;28;20446;-69
2021/06/23 14:45:33;;;;;;;14.07;13.30;;;29.00;88.10;;;;;;5003470;28;20492;-69
2021/06/23 14:48:01;;;;;;;13.37;12.87;;;28.90;86.80;;;;;;5002909;28;20473;-70
2021/06/23 14:50:28;;;;;;;14.70;14.10;;;28.60;88.20;;;;;;5004491;28;20798;-70
2021/06/23 14:52:55;;;;;;;14.67;13.60;;;28.20;89.40;;;;;;5003478;28;20526;-70
2021/06/23 14:55:24;;;;;;;14.60;13.90;;;27.80;90.90;;;;;;5002636;28;21026;-70
2021/06/23 14:57:51;;;;;;;14.47;13.80;;;27.60;91.50;;;;;;5002855;28;20489;-70
2021/06/23 15:00:19;;;;;;;14.07;13.37;;;27.40;92.20;;;;;;4995509;28;20482;-69
2021/06/23 15:02:45;;;;;;;13.97;13.27;;;27.20;93.40;;;;;;4993787;28;20454;-70
2021/06/23 15:05:14;;;;;;;13.93;13.33;;;26.90;94.30;;;;;;4994056;28;20458;-70
2021/06/23 15:07:40;;;;;;;12.73;11.80;;;26.50;95.60;;;;;;4994171;28;20517;-70
2021/06/23 15:10:09;;;;;;;13.90;12.93;;;26.20;95.60;;;;;;4994232;28;20454;-70
2021/06/23 15:12:36;;;;;;;15.67;14.93;;;26.10;96.10;;;;;;4994171;28;20990;-70
2021/06/23 15:15:05;;;;;;;14.97;14.20;;;26.10;97.20;;;;;;4994212;28;20486;-70
2021/06/23 15:17:32;;;;;;;14.47;13.70;;;25.90;98.40;;;;;;4994067;28;20561;-70
2021/06/23 15:19:59;;;;;;;14.63;14.00;;;25.70;99.50;;;;;;4993902;28;20513;-70
2021/06/23 15:22:27;;;;;;;14.80;14.03;;;25.60;99.90;;;;;;4993682;28;20454;-69
2021/06/23 15:24:54;;;;;;;15.63;14.50;;;25.50;99.90;;;;;;4993750;28;20455;-69
2021/06/23 15:27:21;;;;;;;14.60;13.90;;;25.20;99.90;;;;;;4993142;28;20458;-70
2021/06/23 15:29:48;;;;;;;14.43;13.73;;;25.20;99.90;;;;;;4993750;28;20526;-70
2021/06/23 15:32:16;;;;;;;14.57;13.97;;;25.20;99.90;;;;;;4993594;28;20816;-70
2021/06/23 15:34:43;;;;;;;15.30;14.13;;;25.10;99.90;;;;;;4993213;28;21002;-69
2021/06/23 15:37:10;;;;;;;15.00;14.20;;;25.00;99.90;;;;;;4993584;28;20459;-70
2021/06/23 15:39:38;;;;;;;15.70;15.10;;;24.90;99.90;;;;;;4993240;28;20451;-69
2021/06/23 15:42:09;;;;;;;15.37;14.67;;;24.60;99.90;;;;;;4993519;28;20451;-69
2021/06/23 15:44:36;;;;;;;16.30;15.60;;;24.40;99.90;;;;;;4993405;28;20895;-69
2021/06/23 15:47:05;;;;;;;16.33;15.63;;;24.20;99.90;;;;;;4993251;28;20493;-69
2021/06/23 15:49:32;;;;;;;15.40;14.63;;;24.30;99.90;;;;;;4993141;28;20490;-69
2021/06/23 15:51:58;;;;;;;15.87;15.07;;;24.20;99.90;;;;;;4993018;28;20867;-71
2021/06/23 15:54:25;;;;;;;17.40;16.50;;;24.00;99.90;;;;;;4992874;28;20556;-70
2021/06/23 15:56:53;;;;;;;16.13;15.43;;;23.80;99.90;;;;;;4991475;28;20466;-70
2021/06/23 15:59:20;;;;;;;17.00;16.10;;;23.90;99.90;;;;;;4993083;28;20505;-69
2021/06/23 16:01:47;;;;;;;16.20;15.40;;;23.90;99.90;;;;;;4990230;28;20446;-69
2021/06/23 16:04:13;;;;;;;16.67;15.97;;;23.80;99.90;;;;;;4989826;28;20798;-69
2021/06/23 16:06:40;;;;;;;16.63;15.83;;;23.80;99.90;;;;;;4991332;28;20455;-70
2021/06/23 16:09:09;;;;;;;16.50;15.80;;;23.70;99.90;;;;;;4992310;28;20482;-69
2021/06/23 16:11:36;;;;;;;16.90;16.10;;;23.60;99.90;;;;;;4992714;28;20550;-69
2021/06/23 16:14:05;;;;;;;17.23;16.43;;;23.50;99.90;;;;;;4992619;28;20472;-70
2021/06/23 16:16:32;;;;;;;19.10;17.60;;;23.40;99.90;;;;;;4992692;28;20455;-69
2021/06/23 16:18:59;;;;;;;18.90;17.73;;;23.30;99.90;;;;;;4992468;28;20451;-70
2021/06/23 16:21:27;;;;;;;18.50;17.50;;;23.20;99.90;;;;;;4992366;28;20906;-70
2021/06/23 16:24:01;;;;;;;18.60;17.60;;;23.20;99.90;;;;;;4992406;28;20832;-70
2021/06/23 16:26:28;;;;;;;19.43;18.53;;;23.10;99.90;;;;;;4992376;28;20528;-70
2021/06/23 16:28:54;;;;;;;19.83;18.50;;;22.90;99.90;;;;;;4992391;28;20705;-70
2021/06/23 16:31:22;;;;;;;17.90;17.10;;;22.80;99.90;;;;;;4992108;28;20848;-69
2021/06/23 16:33:50;;;;;;;20.53;19.53;;;22.60;99.90;;;;;;4992383;28;20466;-70
2021/06/23 16:36:16;;;;;;;20.07;19.07;;;22.50;99.90;;;;;;4992241;28;20486;-70
2021/06/23 16:38:43;;;;;;;20.33;19.23;;;22.40;99.90;;;;;;4991413;28;20458;-70
2021/06/23 16:41:12;;;;;;;20.80;19.50;;;22.40;99.90;;;;;;4991917;28;20455;-70
2021/06/23 16:43:39;;;;;;;23.17;21.87;;;22.40;99.90;;;;;;4992085;28;20454;-70
2021/06/23 16:46:06;;;;;;;26.00;24.37;;;22.40;99.90;;;;;;4991832;28;20450;-69
2021/06/23 16:48:34;;;;;;;26.83;25.43;;;22.30;99.90;;;;;;4992019;28;20848;-70
2021/06/23 16:51:01;;;;;;;29.87;28.07;;;22.20;99.90;;;;;;4992044;28;20451;-71
2021/06/23 16:53:28;;;;;;;30.10;28.40;;;22.20;99.90;;;;;;4991779;28;20451;-71
2021/06/23 16:55:55;;;;;;;28.30;26.80;;;22.00;99.90;;;;;;4991695;28;20486;-71
2021/06/23 16:58:22;;;;;;;31.93;30.20;;;21.90;99.90;;;;;;4991634;28;20929;-71
2021/06/23 17:00:49;;;;;;;37.87;35.67;;;21.80;99.90;;;;;;4991924;28;20454;-72
2021/06/23 17:03:15;;;;;;;36.73;34.53;;;21.70;99.90;;;;;;4991777;28;20462;-72
2021/06/23 17:05:44;;;;;;;39.33;36.73;;;21.60;99.90;;;;;;4991364;28;20442;-71
2021/06/23 17:08:11;;;;;;;42.93;40.33;;;21.60;99.90;;;;;;4991540;28;20490;-74
2021/06/23 17:10:38;;;;;;;43.63;40.87;;;21.50;99.90;;;;;;4991516;28;20568;-75
2021/06/23 17:13:05;;;;;;;45.53;42.53;;;21.50;99.90;;;;;;4991796;28;20828;-76
2021/06/23 17:15:32;;;;;;;44.70;41.90;;;21.40;99.90;;;;;;4991640;28;20482;-76
2021/06/23 17:17:59;;;;;;;45.30;42.90;;;21.30;99.90;;;;;;4991400;28;20442;-76
2021/06/23 17:20:26;;;;;;;44.10;41.70;;;21.20;99.90;;;;;;4991269;28;21027;-76
2021/06/23 17:22:54;;;;;;;44.03;41.40;;;21.20;99.90;;;;;;4991253;28;20455;-76
2021/06/23 17:25:21;;;;;;;45.47;42.87;;;21.10;99.90;;;;;;4991345;28;20451;-77
2021/06/23 17:27:48;;;;;;;46.63;43.93;;;21.10;99.90;;;;;;4991565;28;20815;-76
2021/06/23 17:30:17;;;;;;;44.33;41.60;;;21.00;99.90;;;;;;4991182;28;20467;-77
2021/06/23 17:32:44;;;;;;;46.90;44.20;;;20.80;99.90;;;;;;4991316;28;20461;-75
2021/06/23 17:35:12;;;;;;;48.33;45.33;;;20.70;99.90;;;;;;4990952;28;21028;-77
2021/06/23 17:37:39;;;;;;;46.57;43.87;;;20.80;99.90;;;;;;4990956;28;20710;-76
2021/06/23 17:40:09;;;;;;;48.53;45.63;;;20.60;99.90;;;;;;4991110;28;20447;-75
2021/06/23 17:42:36;;;;;;;50.50;47.43;;;20.60;99.90;;;;;;4991098;28;20458;-76
2021/06/23 17:45:04;;;;;;;48.87;45.90;;;20.40;99.90;;;;;;4991152;28;20505;-76
2021/06/23 17:47:30;;;;;;;47.07;44.20;;;20.30;99.90;;;;;;4990663;28;20870;-75
2021/06/23 17:49:57;;;;;;;47.13;44.50;;;20.20;99.90;;;;;;4990565;28;20889;-76
2021/06/23 17:52:25;;;;;;;47.30;44.30;;;20.10;99.90;;;;;;4990735;28;20446;-77
2021/06/23 17:54:52;;;;;;;48.27;45.30;;;20.10;99.90;;;;;;4990558;28;20487;-78
2021/06/23 17:57:20;;;;;;;47.50;44.10;;;20.00;99.90;;;;;;4990950;28;20462;-78
2021/06/23 17:59:46;;;;;;;49.23;45.73;;;19.90;99.90;;;;;;4990198;28;20937;-78
2021/06/23 18:02:13;;;;;;;49.97;46.57;;;20.00;99.90;;;;;;4990163;28;20817;-78
2021/06/23 18:04:40;;;;;;;48.23;44.83;;;20.10;99.90;;;;;;4990180;28;20446;-77
2021/06/23 18:07:07;;;;;;;51.37;48.03;;;20.10;99.90;;;;;;4989897;28;20870;-76
2021/06/23 18:09:33;;;;;;;52.23;48.90;;;20.10;99.90;;;;;;4990655;28;20578;-75
2021/06/23 18:12:00;;;;;;;52.93;49.53;;;20.10;99.90;;;;;;4990595;28;20455;-75
2021/06/23 18:14:28;;;;;;;51.40;47.80;;;20.10;99.90;;;;;;4990166;28;20451;-74
2021/06/23 18:16:56;;;;;;;51.00;47.70;;;20.20;99.90;;;;;;4989974;28;20470;-75
2021/06/23 18:19:22;;;;;;;52.57;49.00;;;20.20;99.90;;;;;;4990050;28;20465;-75
2021/06/23 18:21:49;;;;;;;51.77;48.03;;;20.10;99.90;;;;;;4990278;28;20454;-75
2021/06/23 18:24:16;;;;;;;52.40;48.60;;;20.10;99.90;;;;;;4990191;28;20458;-75
2021/06/23 18:26:42;;;;;;;49.53;46.43;;;20.20;99.90;;;;;;4990056;28;20446;-75
2021/06/23 18:29:09;;;;;;;52.60;49.17;;;20.10;99.90;;;;;;4989653;28;20967;-76
2021/06/23 18:31:37;;;;;;;51.10;47.63;;;20.20;99.90;;;;;;4989849;28;20455;-75
2021/06/23 18:34:08;;;;;;;47.50;44.43;;;20.20;99.90;;;;;;4989537;28;20459;-75
2021/06/23 18:36:35;;;;;;;47.80;44.77;;;20.20;99.90;;;;;;4989907;28;20486;-75
2021/06/23 18:39:02;;;;;;;48.73;45.73;;;20.20;99.90;;;;;;4990058;28;20481;-75
2021/06/23 18:41:29;;;;;;;49.93;46.37;;;20.20;99.90;;;;;;4989938;28;20490;-75
2021/06/23 18:43:56;;;;;;;49.53;46.30;;;20.20;99.90;;;;;;4989604;28;20712;-75
2021/06/23 18:46:22;;;;;;;46.80;43.90;;;20.20;99.90;;;;;;4989999;28;20470;-75
2021/06/23 18:48:50;;;;;;;46.93;44.07;;;20.30;99.90;;;;;;4989824;28;20482;-74
2021/06/23 18:51:17;;;;;;;45.97;43.20;;;20.20;99.90;;;;;;4989890;28;20956;-75
2021/06/23 18:53:44;;;;;;;47.00;43.90;;;20.20;99.90;;;;;;4989660;28;20469;-75
2021/06/23 18:56:11;;;;;;;45.20;42.40;;;20.20;99.90;;;;;;4989657;28;20486;-75
2021/06/23 18:58:37;;;;;;;45.27;42.57;;;20.10;99.90;;;;;;4987935;28;20455;-74
2021/06/23 19:01:04;;;;;;;43.57;40.97;;;20.10;99.90;;;;;;4990628;28;20455;-74
2021/06/23 19:03:31;;;;;;;45.00;42.20;;;20.10;99.90;;;;;;4993510;28;20485;-75
2021/06/23 19:05:59;;;;;;;43.80;41.20;;;20.10;99.90;;;;;;4992743;28;20450;-74
2021/06/23 19:08:26;;;;;;;43.93;41.17;;;20.20;99.90;;;;;;4993348;28;20455;-74
2021/06/23 19:10:52;;;;;;;41.53;39.10;;;20.20;99.90;;;;;;4993389;28;20465;-74
2021/06/23 19:13:19;;;;;;;41.87;39.17;;;20.20;99.90;;;;;;4993305;28;20455;-74
2021/06/23 19:15:46;;;;;;;42.07;39.47;;;20.20;99.90;;;;;;4993299;28;20495;-75
2021/06/23 19:18:12;;;;;;;37.67;35.27;;;20.20;99.90;;;;;;4993155;28;20453;-74
2021/06/23 19:20:39;;;;;;;37.93;35.70;;;20.20;99.90;;;;;;4993206;28;20461;-73
2021/06/23 19:23:07;;;;;;;35.33;33.30;;;20.10;99.90;;;;;;4992876;28;20458;-74
2021/06/23 19:25:35;;;;;;;34.30;32.50;;;20.00;99.90;;;;;;4993064;28;20939;-74
2021/06/23 19:28:01;;;;;;;32.60;30.70;;;19.90;99.90;;;;;;4992835;28;20824;-75
2021/06/23 19:30:28;;;;;;;33.67;31.80;;;19.80;99.90;;;;;;4992867;28;20479;-74
2021/06/23 19:32:55;;;;;;;30.20;28.60;;;19.80;99.90;;;;;;4992698;28;20457;-74
2021/06/23 19:35:22;;;;;;;29.80;28.07;;;19.90;99.90;;;;;;4992767;28;20494;-75